Date,TemperatureHighF,TemperatureAvgF,TemperatureLowF,DewpointHighF,DewpointAvgF,DewpointLowF,HumidityHigh,HumidityAvg,HumidityLow,PressureMaxIn,PressureMinIn,WindSpeedMaxMPH,WindSpeedAvgMPH,GustSpeedMaxMPH,PrecipitationSumIn
2013-2-1,7.5,2.2,-4.5,4.0,-0.9,-8.0,89,87,84,30.20,29.92,1,0,0,0.00
2013-2-2,15.8,8.2,3.8,10.0,4.5,1.0,90,85,76,29.92,29.55,1,0,0,0.00
2013-2-3,8.5,6.1,2.1,6.0,3.0,-1.0,97,87,84,29.55,29.36,1,0,0,0.00
2013-2-4,14.6,10.2,4.1,11.0,7.3,1.0,90,88,86,29.69,29.52,0,0,0,0.00
2013-2-5,5.6,0.8,-3.4,3.0,-2.1,-7.0,88,87,85,29.70,29.65,2,0,0,0.00
2013-2-6,4.0,-0.3,-4.3,1.0,-3.4,-8.0,88,86,85,29.78,29.64,0,0,0,0.00
2013-2-7,7.4,-0.8,-9.7,5.0,-4.0,-14.0,89,86,82,29.75,29.36,0,0,0,0.00
2013-2-8,7.7,3.2,-2.1,5.0,-0.0,-6.0,88,86,83,29.86,29.39,0,0,0,0.00
2013-2-9,30.6,14.3,-5.3,23.0,9.7,-9.0,91,82,74,29.84,29.06,9,1,0,0.00
2013-2-10,29.5,18.0,9.2,23.0,14.8,6.0,92,87,75,29.51,28.96,2,0,0,0.00
2013-2-11,20.6,15.2,3.7,17.0,12.4,1.0,91,88,85,29.75,29.52,1,0,0,0.00
2013-2-12,11.1,0.7,-5.0,9.0,-2.4,-9.0,90,86,84,29.83,29.75,1,0,0,0.00
2013-2-13,10.1,-0.7,-8.2,7.0,-3.9,-12.0,91,86,83,29.83,29.79,1,0,0,0.00
2013-2-14,22.5,15.7,6.4,17.0,11.2,3.0,90,82,72,29.79,29.36,5,0,0,0.00
2013-2-15,21.5,8.2,-3.0,17.0,4.3,-7.0,89,84,79,30.09,29.46,2,0,0,0.00
2013-2-16,1.8,-5.5,-14.0,-3.0,-9.2,-18.0,87,84,79,30.16,29.93,2,0,0,0.00
2013-2-17,-1.8,-4.9,-7.9,-6.0,-8.9,-12.0,85,82,78,30.22,29.89,2,0,0,0.00
2013-2-18,-6.1,-16.8,-25.0,-11.0,-21.3,-30.0,82,79,77,30.33,30.21,1,0,0,0.00
2013-2-19,-1.5,-17.3,-31.2,-9.0,-23.0,-36.0,83,75,71,30.21,29.66,2,0,0,0.00
2013-2-20,3.9,-3.5,-14.1,-4.0,-10.2,-19.0,81,73,66,29.65,29.43,4,1,0,0.00
2013-2-21,3.0,-0.3,-4.2,-3.0,-5.4,-9.0,83,79,70,29.48,29.38,4,1,0,0.00
2013-2-22,-3.9,-7.4,-15.5,-8.0,-12.3,-20.0,83,79,74,29.68,29.43,1,0,0,0.00
2013-2-23,5.7,-3.0,-12.0,-2.0,-8.9,-17.0,82,76,70,29.59,29.36,3,0,0,0.00
2013-2-24,-0.3,-7.8,-15.6,-6.0,-12.8,-20.0,84,79,72,29.75,29.39,1,0,0,0.00
2013-2-25,11.5,-3.5,-12.8,4.0,-8.5,-17.0,84,80,70,29.81,29.75,1,0,0,0.00
2013-2-26,21.9,4.4,-9.3,11.0,-1.1,-13.0,87,78,60,29.80,29.50,2,0,0,0.00
2013-2-27,30.7,14.8,2.3,18.0,7.9,-1.0,98,75,53,29.50,29.33,2,0,0,0.00
2013-2-28,25.3,11.5,1.0,15.0,6.1,-3.0,88,79,63,29.50,29.39,1,0,0,0.00